Aviation Digital Data Service (ADDS)

Output produced by METARs form (0512 UTC 21 February 2017)
found at http://www.aviationweather.gov/adds/metars/
 
KBFD 210453Z AUTO 14007KT 10SM CLR 01/M07 A3020 RMK AO2 SLP240 T00111067 401061022
KBFD 210353Z AUTO 13003KT 10SM CLR 00/M06 A3023 RMK AO2 SLP252 T00001061
KBFD 210253Z AUTO 14003KT 10SM CLR 01/M06 A3024 RMK AO2 SLP256 T00111061 52001
KBFD 210153Z AUTO 13003KT 10SM CLR 03/M07 A3025 RMK AO2 SLP259 T00281072
KBFD 210053Z AUTO 00000KT 10SM CLR 04/M07 A3023 RMK AO2 SLP254 T00441072
KBFD 202353Z AUTO 09003KT 10SM CLR 05/M07 A3024 RMK AO2 SLP257 T00501067 10106 20044 51001
KBFD 202253Z AUTO 08005KT 10SM CLR 07/M08 A3024 RMK AO2 SLP255 T00721083
KBFD 202153Z AUTO 04007KT 10SM CLR 09/M05 A3024 RMK AO2 SLP255 T00941050
KBFD 202053Z AUTO 05005KT 10SM CLR 10/M05 A3024 RMK AO2 SLP252 T01001050 53001
KBFD 201953Z AUTO VRB04KT 10SM CLR 10/M03 A3024 RMK AO2 SLP250 T01001033
KBFD 201853Z AUTO VRB04KT 10SM CLR 09/M02 A3023 RMK AO2 SLP249 T00891022
KBFD 201753Z AUTO 32005KT 10SM CLR 08/M02 A3024 RMK AO2 SLP250 T00781017 10083 21022 58005
KBFD 201653Z AUTO 34009KT 10SM CLR 07/M01 A3026 RMK AO2 SLP259 T00721011
KBFD 201553Z AUTO 35009KT 10SM CLR 06/M01 A3028 RMK AO2 SLP264 T00561011
KBFD 201453Z AUTO 34009KT 10SM CLR 04/M01 A3025 RMK AO2 SLP256 T00391006 51017
KBFD 201353Z AUTO 34004KT 10SM CLR 02/M01 A3024 RMK AO2 SLP253 T00221011
KBFD 201253Z AUTO 32004KT 10SM CLR M01/M02 A3023 RMK AO2 SLP250 T10061017
KBFD 201153Z AUTO 29003KT 10SM CLR M01/M02 A3020 RMK AO2 SLP239 T10111022 10017 21022 51023
KBFD 201053Z AUTO 36003KT 10SM CLR M01/M02 A3017 RMK AO2 SLP229 T10111022
KBFD 200953Z AUTO 31003KT 10SM CLR M02/M03 A3015 RMK AO2 SLP222 T10221028
KBFD 200853Z AUTO 00000KT 10SM CLR M02/M03 A3013 RMK AO2 SLP211 T10171028 50006
KBFD 200753Z AUTO 28004KT 10SM CLR 00/M02 A3013 RMK AO2 SLP210 T00001022
KBFD 200653Z AUTO 00000KT 10SM CLR 00/M02 A3011 RMK AO2 SLP204 T00001017
KBFD 200553Z AUTO 31006KT 10SM CLR 02/M02 A3011 RMK AO2 SLP201 T00171017 10083 20011 51011
KBFD 200453Z AUTO 31006KT 10SM CLR 02/M01 A3010 RMK AO2 SLP199 T00221011 401390022
KBFD 200353Z AUTO 29007KT 10SM CLR 03/00 A3009 RMK AO2 SLP197 T00330000
KBFD 200253Z AUTO 30007KT 10SM CLR 04/01 A3007 RMK AO2 SLP190 T00440006 51015
KBFD 200153Z AUTO 31006KT 10SM CLR 05/01 A3007 RMK AO2 SLP191 T00500006
KBFD 200053Z AUTO 30004KT 10SM CLR 06/M01 A3005 RMK AO2 SLP184 T00611011
KBFD 192353Z AUTO 32009KT 10SM CLR 08/M02 A3002 RMK AO2 SLP174 T00781017 10139 20078 53026
KBFD 192253Z AUTO 29011G20KT 10SM CLR 10/M03 A2999 RMK AO2 SLP161 T01001028
KBFD 192153Z AUTO 30015G22KT 10SM CLR 12/M02 A2996 RMK AO2 PK WND 31026/2123 SLP148 T01171022
KBFD 192053Z AUTO 31019G27KT 10SM CLR 13/M02 A2994 RMK AO2 PK WND 31028/2036 SLP140 T01281022 53011
KBFD 191953Z AUTO 30015KT 10SM CLR 14/00 A2992 RMK AO2 SLP130 T01390000
KBFD 191853Z AUTO 29011KT 10SM CLR 14/02 A2991 RMK AO2 SLP127 T01390017
KBFD 191753Z AUTO 30013G19KT 10SM CLR 13/01 A2991 RMK AO2 SLP126 T01280011 10128 20050 50002